createdAt,value
2019-03-03T00:00:41.216Z,0.00
2019-03-03T00:01:41.159Z,0.00
2019-03-03T00:02:41.145Z,0.00
2019-03-03T00:03:41.074Z,0.00
2019-03-03T00:04:41.058Z,0.00
2019-03-03T00:05:41.061Z,0.00
2019-03-03T00:06:41.113Z,0.00
2019-03-03T00:07:41.030Z,0.00
2019-03-03T00:08:41.077Z,0.00
2019-03-03T00:09:41.032Z,0.00
2019-03-03T00:10:41.019Z,0.00
2019-03-03T00:11:41.033Z,0.00
2019-03-03T00:12:40.978Z,0.00
2019-03-03T00:13:41.018Z,0.00
2019-03-03T00:14:40.991Z,0.00
2019-03-03T00:15:41.082Z,0.00
2019-03-03T00:16:41.157Z,0.00
2019-03-03T00:17:41.065Z,0.00
2019-03-03T00:18:40.952Z,0.00
2019-03-03T00:19:40.923Z,0.00
2019-03-03T00:20:40.902Z,0.00
2019-03-03T00:21:41.034Z,0.00
2019-03-03T00:22:40.891Z,0.00
2019-03-03T00:23:40.901Z,0.00
2019-03-03T00:24:40.907Z,0.00
2019-03-03T00:25:40.840Z,0.00
2019-03-03T00:26:40.837Z,0.00
2019-03-03T00:27:40.808Z,0.00
2019-03-03T00:28:40.809Z,0.00
2019-03-03T00:29:40.789Z,0.00
2019-03-03T00:30:40.777Z,0.00
2019-03-03T00:31:40.784Z,0.00
2019-03-03T00:32:40.757Z,0.00
2019-03-03T00:33:40.745Z,0.00
2019-03-03T00:34:40.749Z,0.00
2019-03-03T00:35:40.733Z,0.00
2019-03-03T00:36:40.749Z,0.00
2019-03-03T00:37:40.709Z,0.00
2019-03-03T00:38:40.689Z,0.00
2019-03-03T00:39:40.681Z,0.00
2019-03-03T00:40:40.667Z,0.00
2019-03-03T00:41:40.655Z,0.00
2019-03-03T00:42:40.661Z,0.00
2019-03-03T00:43:40.702Z,0.00
2019-03-03T00:44:40.629Z,0.00
2019-03-03T00:45:40.619Z,0.00
2019-03-03T00:46:40.707Z,0.00
2019-03-03T00:47:40.699Z,0.00
2019-03-03T00:48:40.582Z,0.00
2019-03-03T00:49:40.577Z,0.00
2019-03-03T00:50:40.563Z,0.00
2019-03-03T00:51:40.555Z,0.00
2019-03-03T00:52:40.558Z,0.00
2019-03-03T00:53:40.532Z,0.00
2019-03-03T00:54:40.524Z,0.00
2019-03-03T00:55:40.511Z,0.00
2019-03-03T00:56:40.505Z,0.00
2019-03-03T00:57:40.535Z,0.00
2019-03-03T00:58:40.477Z,0.00
2019-03-03T00:59:40.468Z,0.00
2019-03-03T01:00:40.454Z,0.00
2019-03-03T01:01:40.447Z,0.00
2019-03-03T01:02:40.441Z,0.00
2019-03-03T01:03:40.439Z,0.00
2019-03-03T01:04:40.420Z,0.00
2019-03-03T01:05:40.408Z,0.00
2019-03-03T01:06:40.399Z,0.00
2019-03-03T01:07:40.387Z,0.00
2019-03-03T01:08:40.396Z,0.00
2019-03-03T01:09:40.365Z,0.00
2019-03-03T01:10:40.356Z,0.00
2019-03-03T01:11:40.342Z,0.00
2019-03-03T01:12:40.334Z,0.00
2019-03-03T01:13:40.338Z,0.00
2019-03-03T01:14:40.315Z,0.00
2019-03-03T01:15:40.297Z,0.00
2019-03-03T01:16:40.291Z,0.00
2019-03-03T01:17:40.279Z,0.00
2019-03-03T01:18:40.289Z,0.00
2019-03-03T01:19:40.260Z,0.00
2019-03-03T01:20:40.246Z,0.00
2019-03-03T01:21:40.236Z,0.00
2019-03-03T01:22:40.226Z,0.00
2019-03-03T01:23:40.238Z,0.00
2019-03-03T01:24:40.207Z,0.00
2019-03-03T01:25:40.190Z,0.00
2019-03-03T01:26:40.183Z,0.00
2019-03-03T01:27:40.171Z,0.00
2019-03-03T01:28:40.172Z,0.00
2019-03-03T01:29:40.171Z,0.00
2019-03-03T01:30:40.141Z,0.00
2019-03-03T01:31:40.137Z,0.00
2019-03-03T01:32:40.123Z,0.00
2019-03-03T01:33:40.105Z,0.00
2019-03-03T01:34:40.121Z,0.00
2019-03-03T01:35:40.091Z,0.00
2019-03-03T01:36:40.113Z,0.00
2019-03-03T01:37:40.074Z,0.00
2019-03-03T01:38:40.058Z,0.00
2019-03-03T01:39:40.064Z,0.00
2019-03-03T01:40:40.052Z,0.00
2019-03-03T01:41:40.028Z,0.00
2019-03-03T01:42:40.021Z,0.00
2019-03-03T01:43:40.008Z,0.00
2019-03-03T01:44:40.005Z,0.00
2019-03-03T01:45:39.995Z,0.00
2019-03-03T01:46:39.983Z,0.00
2019-03-03T01:47:39.965Z,0.00
2019-03-03T01:48:39.979Z,0.00
2019-03-03T01:49:39.965Z,0.00
2019-03-03T01:50:39.934Z,0.00
2019-03-03T01:51:39.923Z,0.00
2019-03-03T01:52:39.911Z,0.00
2019-03-03T01:53:39.899Z,0.00
2019-03-03T01:54:39.888Z,0.00
2019-03-03T01:55:39.893Z,0.00
2019-03-03T01:56:39.874Z,0.00
2019-03-03T01:57:39.861Z,0.00
2019-03-03T01:58:39.848Z,0.00
2019-03-03T01:59:39.833Z,0.00
2019-03-03T02:00:39.840Z,0.00
2019-03-03T02:01:39.816Z,0.00
2019-03-03T02:02:39.803Z,0.00
2019-03-03T02:03:39.796Z,0.00
2019-03-03T02:04:39.784Z,0.00
2019-03-03T02:05:39.785Z,0.00
2019-03-03T02:06:39.764Z,0.00
2019-03-03T02:07:39.752Z,0.00
2019-03-03T02:08:39.745Z,0.00
2019-03-03T02:09:39.734Z,0.00
2019-03-03T02:10:39.758Z,0.00
2019-03-03T02:11:39.719Z,0.00
2019-03-03T02:12:39.698Z,0.00
2019-03-03T02:13:39.695Z,0.00
2019-03-03T02:14:39.680Z,0.00
2019-03-03T02:15:39.677Z,0.00
2019-03-03T02:16:39.676Z,0.00
2019-03-03T02:17:39.654Z,0.00
2019-03-03T02:18:39.638Z,0.00
2019-03-03T02:19:39.630Z,0.00
2019-03-03T02:20:39.618Z,0.00
2019-03-03T02:21:39.630Z,0.00
2019-03-03T02:22:39.591Z,0.00
2019-03-03T02:23:39.586Z,0.00
2019-03-03T02:24:39.574Z,0.00
2019-03-03T02:25:39.566Z,0.00
2019-03-03T02:26:39.568Z,0.00
2019-03-03T02:27:39.549Z,0.00
2019-03-03T02:28:39.532Z,0.00
2019-03-03T02:29:39.525Z,0.00
2019-03-03T02:30:39.514Z,0.00
2019-03-03T02:31:39.525Z,0.00
2019-03-03T02:32:39.490Z,0.00
2019-03-03T02:33:39.490Z,0.00
2019-03-03T02:34:39.473Z,0.00
2019-03-03T02:35:39.465Z,0.00
2019-03-03T02:36:39.484Z,0.00
2019-03-03T02:37:39.438Z,0.00
2019-03-03T02:38:39.433Z,0.00
2019-03-03T02:39:39.437Z,0.00
2019-03-03T02:40:39.411Z,0.00
2019-03-03T02:41:39.395Z,0.00
2019-03-03T02:42:39.402Z,0.00
2019-03-03T02:43:39.376Z,0.00
2019-03-03T02:44:39.365Z,0.00
2019-03-03T02:45:39.352Z,0.00
2019-03-03T02:46:39.342Z,0.00
2019-03-03T02:47:39.355Z,0.00
2019-03-03T02:48:39.320Z,0.00
2019-03-03T02:49:39.313Z,0.00
2019-03-03T02:50:39.300Z,0.00
2019-03-03T02:51:39.296Z,0.00
2019-03-03T02:52:39.295Z,0.00
2019-03-03T02:53:39.279Z,0.00
2019-03-03T02:54:39.267Z,0.00
2019-03-03T02:55:39.262Z,0.00
2019-03-03T02:56:39.237Z,0.00
2019-03-03T02:57:39.245Z,0.00
2019-03-03T02:58:39.225Z,0.00
2019-03-03T02:59:39.209Z,0.00
2019-03-03T03:00:39.200Z,0.00
2019-03-03T03:01:39.190Z,0.00
2019-03-03T03:02:39.216Z,0.00
2019-03-03T03:03:39.167Z,0.00
2019-03-03T03:04:39.159Z,0.00
2019-03-03T03:05:39.146Z,0.00
2019-03-03T03:06:39.136Z,0.00
2019-03-03T03:07:39.130Z,0.00
2019-03-03T03:08:39.127Z,0.00
2019-03-03T03:09:39.101Z,0.00
2019-03-03T03:10:39.092Z,0.00
2019-03-03T03:11:39.085Z,0.00
2019-03-03T03:12:39.069Z,0.00
2019-03-03T03:13:39.074Z,0.00
2019-03-03T03:14:39.046Z,0.00
2019-03-03T03:15:40.525Z,0.00
2019-03-03T03:16:39.032Z,0.00
2019-03-03T03:17:39.025Z,0.00
2019-03-03T03:18:39.025Z,0.00
2019-03-03T03:19:38.996Z,0.00
2019-03-03T03:20:39.002Z,0.00
2019-03-03T03:21:38.973Z,0.00
2019-03-03T03:22:38.967Z,0.00
2019-03-03T03:23:38.965Z,0.00
2019-03-03T03:24:38.944Z,0.00
2019-03-03T03:25:38.935Z,0.00
2019-03-03T03:26:38.929Z,0.00
2019-03-03T03:27:38.914Z,0.00
2019-03-03T03:28:38.923Z,0.00
2019-03-03T03:29:38.895Z,0.00
2019-03-03T03:30:38.885Z,0.00
2019-03-03T03:31:38.869Z,0.00
2019-03-03T03:32:38.861Z,0.00
2019-03-03T03:33:38.879Z,0.00
2019-03-03T03:34:38.836Z,0.00
2019-03-03T03:35:38.825Z,0.00
2019-03-03T03:36:38.813Z,0.00
2019-03-03T03:37:38.804Z,0.00
2019-03-03T03:38:38.794Z,0.00
2019-03-03T03:39:38.809Z,0.00
2019-03-03T03:40:38.773Z,0.00
2019-03-03T03:41:38.761Z,0.00
2019-03-03T03:42:38.754Z,0.00
2019-03-03T03:43:38.745Z,0.00
2019-03-03T03:44:38.758Z,0.00
2019-03-03T03:45:38.735Z,0.00
2019-03-03T03:46:38.716Z,0.00
2019-03-03T03:47:38.697Z,0.00
2019-03-03T03:48:38.690Z,0.00
2019-03-03T03:49:38.714Z,0.00
2019-03-03T03:50:38.674Z,0.00
2019-03-03T03:51:38.655Z,0.00
2019-03-03T03:52:38.651Z,0.00
2019-03-03T03:53:38.641Z,0.00
2019-03-03T03:54:38.659Z,0.00
2019-03-03T03:55:38.619Z,0.00
2019-03-03T03:56:38.611Z,0.00
2019-03-03T03:57:38.597Z,0.00
2019-03-03T03:58:38.594Z,0.00
2019-03-03T03:59:38.574Z,0.00
2019-03-03T04:00:38.582Z,0.00
2019-03-03T04:01:38.556Z,0.00
2019-03-03T04:02:38.545Z,0.00
2019-03-03T04:03:38.532Z,0.00
2019-03-03T04:04:38.526Z,0.00
2019-03-03T04:05:38.528Z,0.00
2019-03-03T04:06:38.505Z,0.00
2019-03-03T04:07:38.488Z,0.00
2019-03-03T04:08:38.480Z,0.00
2019-03-03T04:09:38.512Z,0.00
2019-03-03T04:10:38.502Z,0.00
2019-03-03T04:11:38.450Z,0.00
2019-03-03T04:12:38.434Z,0.00
2019-03-03T04:13:38.428Z,0.00
2019-03-03T04:14:38.414Z,0.00
2019-03-03T04:15:38.422Z,0.00
2019-03-03T04:16:38.394Z,0.00
2019-03-03T04:17:38.409Z,0.00
2019-03-03T04:18:38.393Z,0.00
2019-03-03T04:19:38.363Z,0.00
2019-03-03T04:20:38.392Z,0.00
2019-03-03T04:21:38.344Z,0.00
2019-03-03T04:22:38.333Z,0.00
2019-03-03T04:23:38.324Z,0.00
2019-03-03T04:24:38.316Z,0.00
2019-03-03T04:25:38.297Z,0.00
2019-03-03T04:26:38.304Z,0.00
2019-03-03T04:27:38.281Z,0.00
2019-03-03T04:28:38.276Z,0.00
2019-03-03T04:29:38.263Z,0.00
2019-03-03T04:30:38.249Z,0.00
2019-03-03T04:31:38.250Z,0.00
2019-03-03T04:32:38.227Z,0.00
2019-03-03T04:33:38.217Z,0.00
2019-03-03T04:34:38.205Z,0.00
2019-03-03T04:35:38.202Z,0.00
2019-03-03T04:36:38.195Z,0.00
2019-03-03T04:37:38.175Z,0.00
2019-03-03T04:38:38.158Z,0.00
2019-03-03T04:39:38.155Z,0.00
2019-03-03T04:40:38.140Z,0.00
2019-03-03T04:41:38.148Z,0.00
2019-03-03T04:42:38.122Z,0.00
2019-03-03T04:43:38.106Z,0.00
2019-03-03T04:44:38.102Z,0.00
2019-03-03T04:45:38.093Z,0.00
2019-03-03T04:46:38.121Z,0.00
2019-03-03T04:47:38.065Z,0.00
2019-03-03T04:48:38.054Z,0.00
2019-03-03T04:49:38.049Z,0.00
2019-03-03T04:50:38.038Z,0.00
2019-03-03T04:51:38.026Z,0.00
2019-03-03T04:52:38.028Z,0.00
2019-03-03T04:53:38.005Z,0.00
2019-03-03T04:54:37.993Z,0.00
2019-03-03T04:55:37.982Z,0.00
2019-03-03T04:56:37.974Z,0.00
2019-03-03T04:57:37.990Z,0.00
2019-03-03T04:58:37.953Z,0.00
2019-03-03T04:59:37.943Z,0.00
2019-03-03T05:00:37.930Z,0.00
2019-03-03T05:01:37.923Z,0.00
2019-03-03T05:02:37.923Z,0.00
2019-03-03T05:03:37.901Z,0.00
2019-03-03T05:04:37.891Z,0.00
2019-03-03T05:05:37.882Z,0.00
2019-03-03T05:06:37.875Z,0.00
2019-03-03T05:07:37.913Z,0.00
2019-03-03T05:08:37.849Z,0.00
2019-03-03T05:09:37.839Z,0.00
2019-03-03T05:10:37.830Z,0.00
2019-03-03T05:11:37.824Z,0.00
2019-03-03T05:12:37.824Z,0.00
2019-03-03T05:13:37.797Z,0.00
2019-03-03T05:14:37.791Z,0.00
2019-03-03T05:15:37.783Z,0.00
2019-03-03T05:16:37.771Z,0.00
2019-03-03T05:17:37.778Z,0.00
2019-03-03T05:18:37.751Z,0.00
2019-03-03T05:19:37.741Z,0.00
2019-03-03T05:20:37.729Z,0.00
2019-03-03T05:21:37.779Z,0.00
2019-03-03T05:22:37.712Z,0.00
2019-03-03T05:23:37.711Z,0.00
2019-03-03T05:24:37.684Z,0.00
2019-03-03T05:25:37.675Z,0.00
2019-03-03T05:26:37.673Z,0.00
2019-03-03T05:27:37.660Z,0.00
2019-03-03T05:28:37.659Z,0.00
2019-03-03T05:29:37.637Z,0.00
2019-03-03T05:30:37.629Z,0.00
2019-03-03T05:31:37.614Z,0.00
2019-03-03T05:32:37.609Z,0.00
2019-03-03T05:33:37.611Z,0.00
2019-03-03T05:34:37.591Z,0.00
2019-03-03T05:35:37.573Z,0.00
2019-03-03T05:36:37.563Z,0.00
2019-03-03T05:37:37.559Z,0.00
2019-03-03T05:38:37.571Z,0.00
2019-03-03T05:39:37.539Z,0.00
2019-03-03T05:40:37.528Z,0.00
2019-03-03T05:41:37.524Z,0.00
2019-03-03T05:42:37.508Z,0.00
2019-03-03T05:43:37.519Z,0.00
2019-03-03T05:44:37.487Z,0.00
2019-03-03T05:45:37.476Z,0.00
2019-03-03T05:46:37.464Z,0.00
2019-03-03T05:47:37.454Z,0.00
2019-03-03T05:48:37.448Z,0.00
2019-03-03T05:49:37.468Z,0.00
2019-03-03T05:50:37.421Z,0.00
2019-03-03T05:51:37.410Z,0.00
2019-03-03T05:52:37.406Z,0.00
2019-03-03T05:53:37.391Z,0.00
2019-03-03T05:54:37.397Z,0.00
2019-03-03T05:55:37.371Z,0.00
2019-03-03T05:56:37.365Z,0.00
2019-03-03T05:57:37.349Z,0.00
2019-03-03T05:58:37.340Z,0.00
2019-03-03T05:59:37.349Z,0.00
2019-03-03T06:00:37.324Z,0.00
2019-03-03T06:01:37.308Z,0.00
2019-03-03T06:02:37.298Z,4.00
2019-03-03T06:03:37.290Z,0.00
2019-03-03T06:04:37.289Z,0.00
2019-03-03T06:05:37.268Z,0.00
2019-03-03T06:06:37.251Z,0.00
2019-03-03T06:07:37.242Z,4.00
2019-03-03T06:08:37.230Z,4.00
2019-03-03T06:09:37.241Z,0.00
2019-03-03T06:10:37.213Z,0.00
2019-03-03T06:11:37.216Z,0.00
2019-03-03T06:12:37.195Z,0.00
2019-03-03T06:13:37.194Z,0.00
2019-03-03T06:14:37.208Z,0.00
2019-03-03T06:15:37.158Z,0.00
2019-03-03T06:16:37.151Z,0.00
2019-03-03T06:17:37.136Z,0.00
2019-03-03T06:18:37.132Z,0.00
2019-03-03T06:19:37.124Z,0.00
2019-03-03T06:20:37.122Z,0.00
2019-03-03T06:21:37.096Z,0.00
2019-03-03T06:22:37.098Z,0.00
2019-03-03T06:23:37.073Z,0.00
2019-03-03T06:24:37.073Z,0.00
2019-03-03T06:25:37.068Z,0.00
2019-03-03T06:26:37.042Z,0.00
2019-03-03T06:27:37.035Z,0.00
2019-03-03T06:28:37.025Z,0.00
2019-03-03T06:29:37.010Z,0.00
2019-03-03T06:30:37.019Z,0.00
2019-03-03T06:31:36.993Z,0.00
2019-03-03T06:32:36.983Z,0.00
2019-03-03T06:33:36.966Z,0.00
2019-03-03T06:34:36.959Z,0.00
2019-03-03T06:35:36.968Z,0.00
2019-03-03T06:36:36.937Z,0.00
2019-03-03T06:37:36.932Z,0.00
2019-03-03T06:38:36.927Z,0.00
2019-03-03T06:39:36.910Z,0.00
2019-03-03T06:40:36.941Z,0.00
2019-03-03T06:41:36.890Z,0.00
2019-03-03T06:42:36.877Z,0.00
2019-03-03T06:43:36.870Z,0.00
2019-03-03T06:44:36.851Z,0.00
2019-03-03T06:45:36.851Z,0.00
2019-03-03T06:46:36.850Z,0.00
2019-03-03T06:47:36.824Z,0.00
2019-03-03T06:48:36.815Z,0.00
2019-03-03T06:49:36.803Z,0.00
2019-03-03T06:50:36.788Z,0.00
2019-03-03T06:51:36.792Z,0.00
2019-03-03T06:52:36.776Z,0.00
2019-03-03T06:53:36.759Z,0.00
2019-03-03T06:54:36.751Z,0.00
2019-03-03T06:55:36.741Z,0.00
2019-03-03T06:56:36.764Z,0.00
2019-03-03T06:57:36.715Z,0.00
2019-03-03T06:58:36.703Z,0.00
2019-03-03T06:59:36.696Z,8.00
2019-03-03T07:00:36.685Z,8.00
2019-03-03T07:01:36.694Z,172.00
2019-03-03T07:02:36.668Z,172.00
2019-03-03T07:03:36.655Z,180.00
2019-03-03T07:04:36.643Z,188.00
2019-03-03T07:05:36.639Z,192.00
2019-03-03T07:06:36.654Z,196.00
2019-03-03T07:07:36.610Z,188.00
2019-03-03T07:08:36.603Z,184.00
2019-03-03T07:09:36.593Z,184.00
2019-03-03T07:10:36.580Z,188.00
2019-03-03T07:11:36.574Z,192.00
2019-03-03T07:12:36.587Z,208.00
2019-03-03T07:13:36.548Z,220.00
2019-03-03T07:14:36.536Z,220.00
2019-03-03T07:15:36.530Z,216.00
2019-03-03T07:16:36.524Z,212.00
2019-03-03T07:17:36.533Z,208.00
2019-03-03T07:18:36.494Z,216.00
2019-03-03T07:19:36.486Z,232.00
2019-03-03T07:20:36.480Z,248.00
2019-03-03T07:21:36.471Z,272.00
2019-03-03T07:22:36.451Z,276.00
2019-03-03T07:23:36.459Z,300.00
2019-03-03T07:24:36.446Z,316.00
2019-03-03T07:25:36.429Z,312.00
2019-03-03T07:26:36.414Z,288.00
2019-03-03T07:27:36.403Z,284.00
2019-03-03T07:28:36.406Z,292.00
2019-03-03T07:29:36.389Z,296.00
2019-03-03T07:30:36.373Z,292.00
2019-03-03T07:31:36.369Z,304.00
2019-03-03T07:32:36.350Z,320.00
2019-03-03T07:33:36.363Z,328.00
2019-03-03T07:34:36.332Z,336.00
2019-03-03T07:35:36.319Z,348.00
2019-03-03T07:36:36.309Z,356.00
2019-03-03T07:37:36.301Z,356.00
2019-03-03T07:38:36.311Z,364.00
2019-03-03T07:39:36.280Z,388.00
2019-03-03T07:40:36.283Z,436.00
2019-03-03T07:41:36.278Z,484.00
2019-03-03T07:42:36.250Z,452.00
2019-03-03T07:43:36.239Z,420.00
2019-03-03T07:44:36.239Z,420.00
2019-03-03T07:45:36.216Z,416.00
2019-03-03T07:46:36.205Z,404.00
2019-03-03T07:47:36.196Z,368.00
2019-03-03T07:48:36.187Z,360.00
2019-03-03T07:49:36.206Z,380.00
2019-03-03T07:50:36.189Z,412.00
2019-03-03T07:51:36.155Z,440.00
2019-03-03T07:52:36.142Z,500.00
2019-03-03T07:53:36.132Z,488.00
2019-03-03T07:54:36.164Z,456.00
2019-03-03T07:55:36.111Z,500.00
2019-03-03T07:56:36.102Z,512.00
2019-03-03T07:57:36.090Z,568.00
2019-03-03T07:58:36.075Z,584.00
2019-03-03T07:59:36.069Z,592.00
2019-03-03T08:00:36.100Z,544.00
2019-03-03T08:01:36.046Z,524.00
2019-03-03T08:02:36.036Z,516.00
2019-03-03T08:03:36.023Z,528.00
2019-03-03T08:04:36.017Z,588.00
2019-03-03T08:05:36.036Z,652.00
2019-03-03T08:06:35.993Z,684.00
2019-03-03T08:07:35.985Z,668.00
2019-03-03T08:08:35.972Z,664.00
2019-03-03T08:09:35.974Z,536.00
2019-03-03T08:10:35.951Z,552.00
2019-03-03T08:11:35.952Z,632.00
2019-03-03T08:12:35.935Z,692.00
2019-03-03T08:13:35.929Z,700.00
2019-03-03T08:14:35.913Z,648.00
2019-03-03T08:15:35.899Z,668.00
2019-03-03T08:16:35.905Z,740.00
2019-03-03T08:17:35.880Z,792.00
2019-03-03T08:18:35.875Z,776.00
2019-03-03T08:19:35.864Z,860.00
2019-03-03T08:20:35.842Z,980.00
2019-03-03T08:21:35.859Z,940.00
2019-03-03T08:22:35.826Z,840.00
2019-03-03T08:23:35.814Z,752.00
2019-03-03T08:24:35.816Z,920.00
2019-03-03T08:25:35.796Z,1020.00
2019-03-03T08:26:35.786Z,1064.00
2019-03-03T08:27:35.793Z,1032.00
2019-03-03T08:28:35.765Z,944.00
2019-03-03T08:29:35.756Z,956.00
2019-03-03T08:30:35.746Z,932.00
2019-03-03T08:31:35.734Z,900.00
2019-03-03T08:32:35.737Z,812.00
2019-03-03T08:33:35.707Z,736.00
2019-03-03T08:34:35.696Z,704.00
2019-03-03T08:35:35.689Z,684.00
2019-03-03T08:36:35.680Z,632.00
2019-03-03T08:37:35.693Z,576.00
2019-03-03T08:38:35.660Z,576.00
2019-03-03T08:39:35.643Z,608.00
2019-03-03T08:40:35.639Z,620.00
2019-03-03T08:41:35.625Z,564.00
2019-03-03T08:42:35.612Z,560.00
2019-03-03T08:43:35.631Z,584.00
2019-03-03T08:44:35.595Z,588.00
2019-03-03T08:45:35.581Z,584.00
2019-03-03T08:46:35.573Z,644.00
2019-03-03T08:47:35.577Z,656.00
2019-03-03T08:48:35.564Z,588.00
2019-03-03T08:49:35.543Z,500.00
2019-03-03T08:50:35.525Z,484.00
2019-03-03T08:51:35.524Z,520.00
2019-03-03T08:52:35.509Z,556.00
2019-03-03T08:53:35.517Z,516.00
2019-03-03T08:54:35.494Z,492.00
2019-03-03T08:55:35.486Z,484.00
2019-03-03T08:56:35.469Z,580.00
2019-03-03T08:57:35.453Z,688.00
2019-03-03T08:58:35.465Z,732.00
2019-03-03T08:59:35.434Z,744.00
2019-03-03T09:00:35.429Z,724.00
2019-03-03T09:01:35.457Z,656.00
2019-03-03T09:02:35.409Z,580.00
2019-03-03T09:03:35.441Z,568.00
2019-03-03T09:04:35.384Z,604.00
2019-03-03T09:05:35.383Z,572.00
2019-03-03T09:06:35.361Z,524.00
2019-03-03T09:07:35.355Z,512.00
2019-03-03T09:08:35.355Z,532.00
2019-03-03T09:09:35.350Z,592.00
2019-03-03T09:10:35.330Z,632.00
2019-03-03T09:11:35.304Z,560.00
2019-03-03T09:12:35.299Z,464.00
2019-03-03T09:13:35.293Z,384.00
2019-03-03T09:14:35.303Z,356.00
2019-03-03T09:15:35.269Z,408.00
2019-03-03T09:16:35.255Z,444.00
2019-03-03T09:17:35.250Z,448.00
2019-03-03T09:18:35.239Z,412.00
2019-03-03T09:19:35.243Z,380.00
2019-03-03T09:20:35.215Z,376.00
2019-03-03T09:21:35.202Z,444.00
2019-03-03T09:22:35.188Z,500.00
2019-03-03T09:23:35.193Z,540.00
2019-03-03T09:24:35.190Z,612.00
2019-03-03T09:25:35.159Z,676.00
2019-03-03T09:26:35.150Z,680.00
2019-03-03T09:27:35.135Z,672.00
2019-03-03T09:28:35.148Z,768.00
2019-03-03T09:29:35.143Z,772.00
2019-03-03T09:30:35.124Z,804.00
2019-03-03T09:31:35.100Z,864.00
2019-03-03T09:32:35.097Z,896.00
2019-03-03T09:33:36.758Z,780.00
2019-03-03T09:34:35.084Z,612.00
2019-03-03T09:35:35.057Z,616.00
2019-03-03T09:36:35.044Z,620.00
2019-03-03T09:37:35.032Z,684.00
2019-03-03T09:38:35.028Z,720.00
2019-03-03T09:39:35.042Z,732.00
2019-03-03T09:40:35.008Z,676.00
2019-03-03T09:41:34.994Z,660.00
2019-03-03T09:42:34.990Z,740.00
2019-03-03T09:43:34.969Z,800.00
2019-03-03T09:44:34.968Z,844.00
2019-03-03T09:45:34.978Z,840.00
2019-03-03T09:46:34.936Z,772.00
2019-03-03T09:47:34.957Z,732.00
2019-03-03T09:48:34.925Z,660.00
2019-03-03T09:49:34.912Z,640.00
2019-03-03T09:50:34.920Z,664.00
2019-03-03T09:51:34.933Z,668.00
2019-03-03T09:52:34.876Z,696.00
2019-03-03T09:53:34.867Z,700.00
2019-03-03T09:54:34.853Z,704.00
2019-03-03T09:55:34.871Z,596.00
2019-03-03T09:56:34.837Z,556.00
2019-03-03T09:57:34.823Z,572.00
2019-03-03T09:58:34.809Z,492.00
2019-03-03T09:59:34.802Z,520.00
2019-03-03T10:00:34.815Z,616.00
2019-03-03T10:01:34.783Z,552.00
2019-03-03T10:02:34.774Z,496.00
2019-03-03T10:03:34.765Z,556.00
2019-03-03T10:04:34.759Z,544.00
2019-03-03T10:05:34.741Z,560.00
2019-03-03T10:06:34.759Z,624.00
2019-03-03T10:07:34.724Z,660.00
2019-03-03T10:08:34.728Z,656.00
2019-03-03T10:09:34.698Z,704.00
2019-03-03T10:10:34.709Z,816.00
2019-03-03T10:11:34.688Z,756.00
2019-03-03T10:12:34.665Z,756.00
2019-03-03T10:13:34.663Z,840.00
2019-03-03T10:14:34.654Z,804.00
2019-03-03T10:15:34.652Z,628.00
2019-03-03T10:16:34.642Z,584.00
2019-03-03T10:17:34.627Z,644.00
2019-03-03T10:18:34.604Z,596.00
2019-03-03T10:19:34.599Z,608.00
2019-03-03T10:20:34.607Z,576.00
2019-03-03T10:21:34.696Z,540.00
2019-03-03T10:22:34.570Z,532.00
2019-03-03T10:23:34.566Z,516.00
2019-03-03T10:24:34.550Z,508.00
2019-03-03T10:25:34.532Z,448.00
2019-03-03T10:26:35.140Z,428.00
2019-03-03T10:27:34.537Z,540.00
2019-03-03T10:28:34.500Z,500.00
2019-03-03T10:29:34.489Z,520.00
2019-03-03T10:30:34.489Z,492.00
2019-03-03T10:31:34.465Z,404.00
2019-03-03T10:32:34.477Z,416.00
2019-03-03T10:33:34.471Z,508.00
2019-03-03T10:34:34.447Z,576.00
2019-03-03T10:35:34.433Z,520.00
2019-03-03T10:36:34.415Z,536.00
2019-03-03T10:37:34.435Z,508.00
2019-03-03T10:38:36.336Z,424.00
2019-03-03T10:39:34.381Z,388.00
2019-03-03T10:40:34.372Z,476.00
2019-03-03T10:41:34.365Z,612.00
2019-03-03T10:42:34.347Z,728.00
2019-03-03T10:43:34.359Z,708.00
2019-03-03T10:44:34.334Z,700.00
2019-03-03T10:45:34.332Z,684.00
2019-03-03T10:46:34.315Z,640.00
2019-03-03T10:47:34.301Z,792.00
2019-03-03T10:48:34.315Z,904.00
2019-03-03T10:49:34.284Z,820.00
2019-03-03T10:50:34.276Z,704.00
2019-03-03T10:51:34.260Z,592.00
2019-03-03T10:52:34.250Z,640.00
2019-03-03T10:53:34.270Z,700.00
2019-03-03T10:54:34.236Z,820.00
2019-03-03T10:55:34.250Z,1260.00
2019-03-03T10:56:34.286Z,1396.00
2019-03-03T10:57:34.209Z,1316.00
2019-03-03T10:58:34.199Z,1048.00
2019-03-03T10:59:34.169Z,1096.00
2019-03-03T11:00:34.163Z,1376.00
2019-03-03T11:01:34.182Z,1372.00
2019-03-03T11:02:34.154Z,1280.00
2019-03-03T11:03:34.175Z,1216.00
2019-03-03T11:04:34.164Z,1112.00
2019-03-03T11:05:34.171Z,988.00
2019-03-03T11:06:34.103Z,976.00
2019-03-03T11:07:34.090Z,1004.00
2019-03-03T11:08:34.081Z,1128.00
2019-03-03T11:09:34.082Z,1240.00
2019-03-03T11:10:34.056Z,828.00
2019-03-03T11:11:34.084Z,796.00
2019-03-03T11:12:34.045Z,868.00
2019-03-03T11:13:34.027Z,808.00
2019-03-03T11:14:34.033Z,736.00
2019-03-03T11:15:34.010Z,836.00
2019-03-03T11:16:34.017Z,820.00
2019-03-03T11:17:33.987Z,760.00
2019-03-03T11:18:33.980Z,772.00
2019-03-03T11:19:34.012Z,676.00
2019-03-03T11:20:33.950Z,688.00
2019-03-03T11:21:33.939Z,736.00
2019-03-03T11:22:33.928Z,760.00
2019-03-03T11:23:33.964Z,668.00
2019-03-03T11:24:33.927Z,772.00
2019-03-03T11:25:33.961Z,836.00
2019-03-03T11:26:33.912Z,904.00
2019-03-03T11:27:33.889Z,868.00
2019-03-03T11:28:33.928Z,748.00
2019-03-03T11:29:33.887Z,760.00
2019-03-03T11:30:33.890Z,856.00
2019-03-03T11:31:33.880Z,924.00
2019-03-03T11:32:33.883Z,1000.00
2019-03-03T11:33:33.820Z,884.00
2019-03-03T11:34:33.867Z,828.00
2019-03-03T11:35:33.838Z,740.00
2019-03-03T11:36:33.795Z,772.00
2019-03-03T11:37:33.840Z,720.00
2019-03-03T11:38:33.765Z,716.00
2019-03-03T11:39:33.755Z,800.00
2019-03-03T11:40:33.743Z,800.00
2019-03-03T11:41:33.764Z,740.00
2019-03-03T11:42:33.725Z,708.00
2019-03-03T11:43:33.709Z,708.00
2019-03-03T11:44:33.702Z,664.00
2019-03-03T11:45:33.701Z,560.00
2019-03-03T11:46:33.691Z,528.00
2019-03-03T11:47:33.670Z,576.00
2019-03-03T11:48:33.665Z,636.00
2019-03-03T11:49:33.660Z,544.00
2019-03-03T11:50:33.640Z,588.00
2019-03-03T11:51:33.654Z,604.00
2019-03-03T11:52:33.629Z,576.00
2019-03-03T11:53:33.628Z,568.00
2019-03-03T11:54:33.594Z,540.00
2019-03-03T11:55:33.588Z,580.00
2019-03-03T11:56:33.586Z,596.00
2019-03-03T11:57:33.565Z,524.00
2019-03-03T11:58:33.557Z,504.00
2019-03-03T11:59:33.547Z,496.00
2019-03-03T12:00:33.548Z,460.00
2019-03-03T12:01:33.550Z,456.00
2019-03-03T12:02:33.527Z,448.00
2019-03-03T12:03:33.503Z,484.00
2019-03-03T12:04:33.490Z,468.00
2019-03-03T12:05:33.486Z,448.00
2019-03-03T12:06:33.505Z,452.00
2019-03-03T12:07:33.458Z,448.00
2019-03-03T12:08:33.456Z,408.00
2019-03-03T12:09:33.453Z,432.00
2019-03-03T12:10:34.180Z,472.00
2019-03-03T12:11:33.424Z,592.00
2019-03-03T12:12:33.441Z,680.00
2019-03-03T12:13:33.395Z,584.00
2019-03-03T12:14:33.387Z,572.00
2019-03-03T12:15:33.375Z,588.00
2019-03-03T12:16:33.369Z,720.00
2019-03-03T12:17:33.367Z,716.00
2019-03-03T12:18:33.343Z,676.00
2019-03-03T12:19:33.330Z,764.00
2019-03-03T12:20:33.321Z,756.00
2019-03-03T12:21:33.315Z,788.00
2019-03-03T12:22:33.313Z,824.00
2019-03-03T12:23:33.291Z,880.00
2019-03-03T12:24:33.284Z,900.00
2019-03-03T12:25:33.284Z,924.00
2019-03-03T12:26:33.265Z,952.00
2019-03-03T12:27:33.268Z,952.00
2019-03-03T12:28:33.240Z,928.00
2019-03-03T12:29:33.227Z,916.00
2019-03-03T12:30:33.215Z,888.00
2019-03-03T12:31:33.207Z,888.00
2019-03-03T12:32:33.198Z,900.00
2019-03-03T12:33:33.199Z,900.00
2019-03-03T12:34:33.179Z,880.00
2019-03-03T12:35:33.162Z,832.00
2019-03-03T12:36:33.152Z,800.00
2019-03-03T12:37:33.141Z,796.00
2019-03-03T12:38:33.154Z,848.00
2019-03-03T12:39:33.171Z,880.00
2019-03-03T12:40:33.109Z,896.00
2019-03-03T12:41:33.110Z,916.00
2019-03-03T12:42:33.126Z,992.00
2019-03-03T12:43:33.108Z,1048.00
2019-03-03T12:44:33.066Z,1084.00
2019-03-03T12:45:33.059Z,1108.00
2019-03-03T12:46:33.049Z,1044.00
2019-03-03T12:47:33.033Z,992.00
2019-03-03T12:48:33.038Z,968.00
2019-03-03T12:49:33.034Z,940.00
2019-03-03T12:50:33.005Z,940.00
2019-03-03T12:51:33.017Z,960.00
2019-03-03T12:52:32.987Z,1028.00
2019-03-03T12:53:32.974Z,1028.00
2019-03-03T12:54:32.990Z,1060.00